Priargunsk, Russia
Current Conditions -  °F | °C
As of 8:30 PM on Thursday 23 Oct 2014 (Local Time) from UIAA Reporting Station
Broken Clouds Broken Clouds  
Wind Chill: 30°   Ceiling: 10000
Heat Index: 36°   Visibility: 6mi
Dew Point: 19°   Wind: 7mph
Humidity: 52%   Direction: 200°SSW
Pressure: 29.8"   Gusts: NA
Location:  50.35°N, 119.1°E
Report Text: UIAA 231130Z 20003MPS 9999 FEW050 BKN100 02/M07 Q1009 NOSIG RMKQFE698 29CLRD70
Loading
Personal Weather Stations






























Interactive Weather Map
Tropical Storm Tracking
New forecast layout! Learn more

10-Day Weather Forecast

Advertisements
Track Severe Weather on mobile